• Join FlightAware (Why Join?)
  • Login
  • US Flag 
02:49PM EDT


 

Airport Tracker/Info


-or-


 

Live Flight TrackerFlight Track Log ✈ PDT4226 ✈ 25-Oct-2013 ✈ KBGM - KPHL

Flight Track Log - Related Links

Times and Time Zones

All times are in EDT time to prevent confusion due to time zone crossing. See the PDT4226 flight status page for this flight to view local times or setup timezone preferences in your user account.

Time Position Orientation Groundspeed Altitude Reporting Facility
EDT Latitude Longitude Course Direction KTS MPH feet Rate Location/Type
01:49PM 41.9875 -75.9074 180° South  Level Estimated
01:50PM 41.9308 -75.9136 185° South  Level FlightAware Approximate
01:51PM 41.8757 -75.8950 154° Southeast  Level Estimated
01:52PM 41.8205 -75.8764 160° South  Level Estimated
01:53PM 41.7654 -75.8579 159° South  Level Estimated
01:54PM 41.7093 -75.8456 171° South  Level FlightAware Approximate
01:55PM 41.6532 -75.8334 171° South  Level FlightAware Approximate
01:56PM 41.5981 -75.8145 153° Southeast  Level Estimated
01:57PM 41.5430 -75.7958 161° South  Level Estimated
01:58PM 41.4887 -75.7736 163° South  Level FlightAware Approximate
01:59PM 41.4343 -75.7514 163° South  Level FlightAware Approximate
02:00PM 41.3792 -75.7330 162° South  Level Estimated
02:01PM 41.3252 -75.7092 162° South  Level FlightAware Approximate
02:02PM 41.2712 -75.6854 162° South  Level FlightAware Approximate
02:03PM 41.2173 -75.6617 162° South  Level FlightAware Approximate
02:04PM 41.1633 -75.6380 162° South  Level FlightAware Approximate
02:05PM 41.1079 -75.6207 159° South  Level Estimated
02:06PM 41.0526 -75.6033 163° South  Level Estimated
02:07PM 40.9989 -75.5787 161° South  Level FlightAware Approximate
02:08PM 40.9452 -75.5541 161° South  Level FlightAware Approximate
02:09PM 40.8914 -75.5296 161° South  Level FlightAware Approximate
02:10PM 40.8359 -75.5136 190° South  Level Estimated
02:10PM 40.6333 -75.6167 190° South 254 292 6,000  Level Philadelphia TRACON
02:11PM 40.7764 -75.5112 178° South  Level FlightAware Approximate
02:11PM 40.6000 -75.6167 180° South 254 292 5,400  Level Philadelphia TRACON
02:12PM 40.7169 -75.5088 178° South  Level FlightAware Approximate
02:12PM 40.5333 -75.5833 159° South 271 312 5,000  Level Philadelphia TRACON
02:13PM 40.6573 -75.5064 178° South  Level FlightAware Approximate
02:13PM 40.4667 -75.5333 150° Southeast 256 295 5,000  Level Philadelphia TRACON
02:14PM 40.5997 -75.4866 187° South  Level Estimated
02:14PM 40.4000 -75.4833 150° Southeast 252 290 5,000  Level Philadelphia TRACON
02:15PM 40.5405 -75.4956 187° South  Level FlightAware Approximate
02:15PM 40.3500 -75.4333 143° Southeast 249 287 5,000  Level Philadelphia TRACON
02:16PM 40.4834 -75.4736 190° South  Level Estimated
02:16PM 40.2833 -75.3833 150° Southeast 250 288 4,700  Level Philadelphia TRACON
02:17PM 40.2333 -75.3333 143° Southeast 254 292 4,000 -360 Descending Philadelphia TRACON
02:18PM 40.1833 -75.2833 143° Southeast 238 274 4,000  Level Philadelphia TRACON
02:19PM 40.1167 -75.2500 159° South 241 277 4,000  Level Philadelphia TRACON
02:20PM 40.0500 -75.2167 159° South 238 274 4,000  Level Philadelphia TRACON
02:21PM 40.0000 -75.1833 153° Southeast 241 277 4,000  Level Philadelphia TRACON
02:22PM 39.9333 -75.1667 169° South 203 234 4,000 -120 Level Philadelphia TRACON
02:23PM 39.8833 -75.1500 166° South 218 251 3,800 -960 Descending Philadelphia TRACON
02:24PM 39.8167 -75.1167 159° South 211 243 2,000 -960 Descending Philadelphia TRACON
02:25PM 39.7833 -75.1667 229° Southwest 187 215 1,900 -480 Descending Philadelphia TRACON
02:26PM 39.8167 -75.2000 322° Northwest 141 162 1,100 -660 Descending Philadelphia TRACON
02:27PM 39.8500 -75.2167 339° North 106 122 600 -540 Descending Philadelphia TRACON